sensor_id;sensor_type;location;lat;lon;timestamp;temperature;humidity
52555;DHT22;38455;52.710;6.502;2023-07-30T00:01:50;15.60;99.90
52555;DHT22;38455;52.710;6.502;2023-07-30T00:04:15;15.60;99.90
52555;DHT22;38455;52.710;6.502;2023-07-30T00:06:41;15.60;99.90
52555;DHT22;38455;52.710;6.502;2023-07-30T00:09:07;15.60;99.90
52555;DHT22;38455;52.710;6.502;2023-07-30T00:11:33;15.60;99.90
52555;DHT22;38455;52.710;6.502;2023-07-30T00:13:59;15.60;99.90
52555;DHT22;38455;52.710;6.502;2023-07-30T00:16:28;15.60;99.90
52555;DHT22;38455;52.710;6.502;2023-07-30T00:18:54;15.50;99.90
52555;DHT22;38455;52.710;6.502;2023-07-30T00:21:20;15.50;99.90
52555;DHT22;38455;52.710;6.502;2023-07-30T00:23:45;15.50;99.90
52555;DHT22;38455;52.710;6.502;2023-07-30T00:26:11;15.50;99.90
52555;DHT22;38455;52.710;6.502;2023-07-30T00:28:37;15.40;99.90
52555;DHT22;38455;52.710;6.502;2023-07-30T00:31:03;15.40;99.90
52555;DHT22;38455;52.710;6.502;2023-07-30T00:33:28;15.40;99.90
52555;DHT22;38455;52.710;6.502;2023-07-30T00:35:54;15.30;99.90
52555;DHT22;38455;52.710;6.502;2023-07-30T00:38:22;15.30;99.90
52555;DHT22;38455;52.710;6.502;2023-07-30T00:40:48;15.30;99.90
52555;DHT22;38455;52.710;6.502;2023-07-30T00:43:13;15.30;99.90
52555;DHT22;38455;52.710;6.502;2023-07-30T00:45:42;15.30;99.90
52555;DHT22;38455;52.710;6.502;2023-07-30T00:48:09;15.20;99.90
52555;DHT22;38455;52.710;6.502;2023-07-30T00:50:35;15.20;99.90
52555;DHT22;38455;52.710;6.502;2023-07-30T00:53:01;15.20;99.90
52555;DHT22;38455;52.710;6.502;2023-07-30T00:55:26;15.20;99.90
52555;DHT22;38455;52.710;6.502;2023-07-30T00:57:52;15.20;99.90
52555;DHT22;38455;52.710;6.502;2023-07-30T01:00:18;15.20;99.90
52555;DHT22;38455;52.710;6.502;2023-07-30T01:02:44;15.20;99.90
52555;DHT22;38455;52.710;6.502;2023-07-30T01:05:10;15.20;99.90
52555;DHT22;38455;52.710;6.502;2023-07-30T01:07:36;15.10;99.90
52555;DHT22;38455;52.710;6.502;2023-07-30T01:10:02;15.10;99.90
52555;DHT22;38455;52.710;6.502;2023-07-30T01:12:30;15.10;99.90
52555;DHT22;38455;52.710;6.502;2023-07-30T01:14:57;15.10;99.90
52555;DHT22;38455;52.710;6.502;2023-07-30T01:17:23;15.10;99.90
52555;DHT22;38455;52.710;6.502;2023-07-30T01:19:49;15.00;99.90
52555;DHT22;38455;52.710;6.502;2023-07-30T01:22:16;15.00;99.90
52555;DHT22;38455;52.710;6.502;2023-07-30T01:24:41;15.00;99.90
52555;DHT22;38455;52.710;6.502;2023-07-30T01:27:13;15.00;99.90
52555;DHT22;38455;52.710;6.502;2023-07-30T01:29:48;15.00;99.90
52555;DHT22;38455;52.710;6.502;2023-07-30T01:32:18;15.00;99.90
52555;DHT22;38455;52.710;6.502;2023-07-30T01:34:46;14.90;99.90
52555;DHT22;38455;52.710;6.502;2023-07-30T01:37:13;14.90;99.90
52555;DHT22;38455;52.710;6.502;2023-07-30T01:39:40;14.90;99.90
52555;DHT22;38455;52.710;6.502;2023-07-30T01:42:08;14.90;99.90
52555;DHT22;38455;52.710;6.502;2023-07-30T01:44:33;14.90;99.90
52555;DHT22;38455;52.710;6.502;2023-07-30T01:46:59;14.90;99.90
52555;DHT22;38455;52.710;6.502;2023-07-30T01:49:25;14.90;99.90
52555;DHT22;38455;52.710;6.502;2023-07-30T01:51:51;14.80;99.90
52555;DHT22;38455;52.710;6.502;2023-07-30T01:54:17;14.80;99.90
52555;DHT22;38455;52.710;6.502;2023-07-30T01:56:42;14.80;99.90
52555;DHT22;38455;52.710;6.502;2023-07-30T01:59:08;14.70;99.90
52555;DHT22;38455;52.710;6.502;2023-07-30T02:01:34;14.70;99.90
52555;DHT22;38455;52.710;6.502;2023-07-30T02:03:59;14.70;99.90
52555;DHT22;38455;52.710;6.502;2023-07-30T02:06:25;14.70;99.90
52555;DHT22;38455;52.710;6.502;2023-07-30T02:08:51;14.70;99.90
52555;DHT22;38455;52.710;6.502;2023-07-30T02:11:16;14.70;99.90
52555;DHT22;38455;52.710;6.502;2023-07-30T02:13:42;14.60;99.90
52555;DHT22;38455;52.710;6.502;2023-07-30T02:16:08;14.60;99.90
52555;DHT22;38455;52.710;6.502;2023-07-30T02:18:33;14.60;99.90
52555;DHT22;38455;52.710;6.502;2023-07-30T02:20:59;14.60;99.90
52555;DHT22;38455;52.710;6.502;2023-07-30T02:23:25;14.60;99.90
52555;DHT22;38455;52.710;6.502;2023-07-30T02:25:51;14.60;99.90
52555;DHT22;38455;52.710;6.502;2023-07-30T02:28:16;14.60;99.90
52555;DHT22;38455;52.710;6.502;2023-07-30T02:30:42;14.60;99.90
52555;DHT22;38455;52.710;6.502;2023-07-30T02:33:08;14.60;99.90
52555;DHT22;38455;52.710;6.502;2023-07-30T02:35:34;14.60;99.90
52555;DHT22;38455;52.710;6.502;2023-07-30T02:38:00;14.50;99.90
52555;DHT22;38455;52.710;6.502;2023-07-30T02:40:25;14.50;99.90
52555;DHT22;38455;52.710;6.502;2023-07-30T02:42:51;14.60;99.90
52555;DHT22;38455;52.710;6.502;2023-07-30T02:45:17;14.50;99.90
52555;DHT22;38455;52.710;6.502;2023-07-30T02:47:43;14.60;99.90
52555;DHT22;38455;52.710;6.502;2023-07-30T02:50:09;14.50;99.90
52555;DHT22;38455;52.710;6.502;2023-07-30T02:52:35;14.60;99.90
52555;DHT22;38455;52.710;6.502;2023-07-30T02:55:01;14.50;99.90
52555;DHT22;38455;52.710;6.502;2023-07-30T02:57:26;14.60;99.90
52555;DHT22;38455;52.710;6.502;2023-07-30T02:59:52;14.60;99.90
52555;DHT22;38455;52.710;6.502;2023-07-30T03:02:17;14.60;99.90
52555;DHT22;38455;52.710;6.502;2023-07-30T03:04:43;14.60;99.90
52555;DHT22;38455;52.710;6.502;2023-07-30T03:07:09;14.70;99.90
52555;DHT22;38455;52.710;6.502;2023-07-30T03:09:35;14.70;99.90
52555;DHT22;38455;52.710;6.502;2023-07-30T03:12:01;14.70;99.90
52555;DHT22;38455;52.710;6.502;2023-07-30T03:14:27;14.80;99.90
52555;DHT22;38455;52.710;6.502;2023-07-30T03:16:52;14.80;99.90
52555;DHT22;38455;52.710;6.502;2023-07-30T03:19:18;14.80;99.90
52555;DHT22;38455;52.710;6.502;2023-07-30T03:21:44;14.80;99.90
52555;DHT22;38455;52.710;6.502;2023-07-30T03:24:09;14.80;99.90
52555;DHT22;38455;52.710;6.502;2023-07-30T03:26:35;14.80;99.90
52555;DHT22;38455;52.710;6.502;2023-07-30T03:29:01;14.80;99.90
52555;DHT22;38455;52.710;6.502;2023-07-30T03:31:27;14.80;99.90
52555;DHT22;38455;52.710;6.502;2023-07-30T03:33:54;14.80;99.90
52555;DHT22;38455;52.710;6.502;2023-07-30T03:36:20;14.80;99.90
52555;DHT22;38455;52.710;6.502;2023-07-30T03:38:47;14.80;99.90
52555;DHT22;38455;52.710;6.502;2023-07-30T03:41:12;14.80;99.90
52555;DHT22;38455;52.710;6.502;2023-07-30T03:43:38;14.90;99.90
52555;DHT22;38455;52.710;6.502;2023-07-30T03:46:04;14.90;99.90
52555;DHT22;38455;52.710;6.502;2023-07-30T03:48:30;14.90;99.90
52555;DHT22;38455;52.710;6.502;2023-07-30T03:50:56;14.80;99.90
52555;DHT22;38455;52.710;6.502;2023-07-30T03:53:22;14.80;99.90
52555;DHT22;38455;52.710;6.502;2023-07-30T03:55:48;14.80;99.90
52555;DHT22;38455;52.710;6.502;2023-07-30T03:58:14;14.80;99.90
52555;DHT22;38455;52.710;6.502;2023-07-30T04:00:40;14.80;99.90
52555;DHT22;38455;52.710;6.502;2023-07-30T04:03:06;14.70;99.90
52555;DHT22;38455;52.710;6.502;2023-07-30T04:05:32;14.70;99.90
52555;DHT22;38455;52.710;6.502;2023-07-30T04:07:57;14.70;99.90
52555;DHT22;38455;52.710;6.502;2023-07-30T04:10:23;14.70;99.90
52555;DHT22;38455;52.710;6.502;2023-07-30T04:12:49;14.70;99.90
52555;DHT22;38455;52.710;6.502;2023-07-30T04:15:15;14.60;99.90
52555;DHT22;38455;52.710;6.502;2023-07-30T04:17:42;14.70;99.90
52555;DHT22;38455;52.710;6.502;2023-07-30T04:20:08;14.70;99.90
52555;DHT22;38455;52.710;6.502;2023-07-30T04:22:38;14.70;99.90
52555;DHT22;38455;52.710;6.502;2023-07-30T04:25:04;14.70;99.90
52555;DHT22;38455;52.710;6.502;2023-07-30T04:27:30;14.70;99.90
52555;DHT22;38455;52.710;6.502;2023-07-30T04:29:55;14.70;99.90
52555;DHT22;38455;52.710;6.502;2023-07-30T04:32:21;14.80;99.90
52555;DHT22;38455;52.710;6.502;2023-07-30T04:34:47;14.80;99.90
52555;DHT22;38455;52.710;6.502;2023-07-30T04:37:13;14.90;99.90
52555;DHT22;38455;52.710;6.502;2023-07-30T04:39:38;14.90;99.90
52555;DHT22;38455;52.710;6.502;2023-07-30T04:42:04;15.00;99.90
52555;DHT22;38455;52.710;6.502;2023-07-30T04:44:30;15.00;99.90
52555;DHT22;38455;52.710;6.502;2023-07-30T04:46:56;15.00;99.90
52555;DHT22;38455;52.710;6.502;2023-07-30T04:49:22;15.10;99.90
52555;DHT22;38455;52.710;6.502;2023-07-30T04:51:47;15.20;99.90
52555;DHT22;38455;52.710;6.502;2023-07-30T04:54:13;15.20;99.90
52555;DHT22;38455;52.710;6.502;2023-07-30T04:56:39;15.30;99.90
52555;DHT22;38455;52.710;6.502;2023-07-30T04:59:05;15.40;99.90
52555;DHT22;38455;52.710;6.502;2023-07-30T05:01:30;15.50;99.90
52555;DHT22;38455;52.710;6.502;2023-07-30T05:03:56;15.60;99.90
52555;DHT22;38455;52.710;6.502;2023-07-30T05:06:23;15.60;99.90
52555;DHT22;38455;52.710;6.502;2023-07-30T05:08:48;15.70;99.90
52555;DHT22;38455;52.710;6.502;2023-07-30T05:11:14;15.80;99.90
52555;DHT22;38455;52.710;6.502;2023-07-30T05:13:40;15.90;99.90
52555;DHT22;38455;52.710;6.502;2023-07-30T05:16:06;15.90;99.90
52555;DHT22;38455;52.710;6.502;2023-07-30T05:18:32;16.00;99.90
52555;DHT22;38455;52.710;6.502;2023-07-30T05:20:57;16.10;99.90
52555;DHT22;38455;52.710;6.502;2023-07-30T05:23:23;16.20;99.90
52555;DHT22;38455;52.710;6.502;2023-07-30T05:25:49;16.20;99.90
52555;DHT22;38455;52.710;6.502;2023-07-30T05:28:15;16.30;99.90
52555;DHT22;38455;52.710;6.502;2023-07-30T05:30:41;16.30;99.90
52555;DHT22;38455;52.710;6.502;2023-07-30T05:33:06;16.30;99.90
52555;DHT22;38455;52.710;6.502;2023-07-30T05:35:32;16.30;99.90
52555;DHT22;38455;52.710;6.502;2023-07-30T05:37:58;16.40;99.90
52555;DHT22;38455;52.710;6.502;2023-07-30T05:40:23;16.50;99.90
52555;DHT22;38455;52.710;6.502;2023-07-30T05:42:49;16.50;99.90
52555;DHT22;38455;52.710;6.502;2023-07-30T05:45:15;16.60;99.90
52555;DHT22;38455;52.710;6.502;2023-07-30T05:47:41;16.70;99.90
52555;DHT22;38455;52.710;6.502;2023-07-30T05:50:07;16.80;99.90
52555;DHT22;38455;52.710;6.502;2023-07-30T05:52:34;16.80;99.90
52555;DHT22;38455;52.710;6.502;2023-07-30T05:55:00;16.90;99.90
52555;DHT22;38455;52.710;6.502;2023-07-30T05:57:25;16.90;99.90
52555;DHT22;38455;52.710;6.502;2023-07-30T05:59:51;16.90;99.90
52555;DHT22;38455;52.710;6.502;2023-07-30T06:02:17;16.90;99.90
52555;DHT22;38455;52.710;6.502;2023-07-30T06:04:43;17.00;99.90
52555;DHT22;38455;52.710;6.502;2023-07-30T06:07:09;17.10;99.90
52555;DHT22;38455;52.710;6.502;2023-07-30T06:09:34;17.10;99.90
52555;DHT22;38455;52.710;6.502;2023-07-30T06:12:00;17.20;99.90
52555;DHT22;38455;52.710;6.502;2023-07-30T06:14:26;17.30;99.90
52555;DHT22;38455;52.710;6.502;2023-07-30T06:16:53;17.30;99.90
52555;DHT22;38455;52.710;6.502;2023-07-30T06:19:19;17.40;99.90
52555;DHT22;38455;52.710;6.502;2023-07-30T06:21:45;17.50;99.90
52555;DHT22;38455;52.710;6.502;2023-07-30T06:24:10;17.60;99.90
52555;DHT22;38455;52.710;6.502;2023-07-30T06:26:36;17.70;99.90
52555;DHT22;38455;52.710;6.502;2023-07-30T06:29:02;17.60;99.90
52555;DHT22;38455;52.710;6.502;2023-07-30T06:31:28;17.60;99.90
52555;DHT22;38455;52.710;6.502;2023-07-30T06:33:54;17.80;99.90
52555;DHT22;38455;52.710;6.502;2023-07-30T06:36:20;18.10;99.90
52555;DHT22;38455;52.710;6.502;2023-07-30T06:38:46;18.30;99.90
52555;DHT22;38455;52.710;6.502;2023-07-30T06:41:12;18.40;99.90
52555;DHT22;38455;52.710;6.502;2023-07-30T06:43:38;18.30;99.90
52555;DHT22;38455;52.710;6.502;2023-07-30T06:46:04;18.40;99.90
52555;DHT22;38455;52.710;6.502;2023-07-30T06:48:30;18.40;99.90
52555;DHT22;38455;52.710;6.502;2023-07-30T06:50:56;18.60;99.90
52555;DHT22;38455;52.710;6.502;2023-07-30T06:53:22;18.80;99.90
52555;DHT22;38455;52.710;6.502;2023-07-30T06:55:48;19.20;99.90
52555;DHT22;38455;52.710;6.502;2023-07-30T06:58:13;19.50;99.90
52555;DHT22;38455;52.710;6.502;2023-07-30T07:00:39;19.70;99.90
52555;DHT22;38455;52.710;6.502;2023-07-30T07:03:05;20.00;99.90
52555;DHT22;38455;52.710;6.502;2023-07-30T07:05:31;20.40;99.90
52555;DHT22;38455;52.710;6.502;2023-07-30T07:07:57;20.40;99.90
52555;DHT22;38455;52.710;6.502;2023-07-30T07:10:23;20.30;99.90
52555;DHT22;38455;52.710;6.502;2023-07-30T07:12:48;20.40;99.90
52555;DHT22;38455;52.710;6.502;2023-07-30T07:15:15;20.40;99.90
52555;DHT22;38455;52.710;6.502;2023-07-30T07:17:41;20.50;99.90
52555;DHT22;38455;52.710;6.502;2023-07-30T07:20:07;20.40;99.90
52555;DHT22;38455;52.710;6.502;2023-07-30T07:22:33;20.30;99.90
52555;DHT22;38455;52.710;6.502;2023-07-30T07:24:59;20.20;99.90
52555;DHT22;38455;52.710;6.502;2023-07-30T07:27:25;20.20;99.90
52555;DHT22;38455;52.710;6.502;2023-07-30T07:29:51;20.10;99.90
52555;DHT22;38455;52.710;6.502;2023-07-30T07:32:18;20.10;99.90
52555;DHT22;38455;52.710;6.502;2023-07-30T07:34:47;20.00;99.90
52555;DHT22;38455;52.710;6.502;2023-07-30T07:37:16;20.10;99.90
52555;DHT22;38455;52.710;6.502;2023-07-30T07:39:47;20.50;99.90
52555;DHT22;38455;52.710;6.502;2023-07-30T07:42:12;21.00;99.90
52555;DHT22;38455;52.710;6.502;2023-07-30T07:44:38;21.70;99.90
52555;DHT22;38455;52.710;6.502;2023-07-30T07:47:04;22.50;99.90
52555;DHT22;38455;52.710;6.502;2023-07-30T07:49:30;22.90;99.90
52555;DHT22;38455;52.710;6.502;2023-07-30T07:51:56;23.10;99.90
52555;DHT22;38455;52.710;6.502;2023-07-30T07:54:21;22.90;99.90
52555;DHT22;38455;52.710;6.502;2023-07-30T07:56:47;23.30;99.90
52555;DHT22;38455;52.710;6.502;2023-07-30T07:59:13;23.90;99.90
52555;DHT22;38455;52.710;6.502;2023-07-30T08:01:39;24.60;99.90
52555;DHT22;38455;52.710;6.502;2023-07-30T08:04:05;24.30;99.90
52555;DHT22;38455;52.710;6.502;2023-07-30T08:06:33;24.90;99.90
52555;DHT22;38455;52.710;6.502;2023-07-30T08:08:59;25.80;99.90
52555;DHT22;38455;52.710;6.502;2023-07-30T08:11:25;25.90;99.90
52555;DHT22;38455;52.710;6.502;2023-07-30T08:13:50;25.60;99.90
52555;DHT22;38455;52.710;6.502;2023-07-30T08:16:16;25.40;99.90
52555;DHT22;38455;52.710;6.502;2023-07-30T08:18:42;25.50;99.90
52555;DHT22;38455;52.710;6.502;2023-07-30T08:21:07;25.50;99.90
52555;DHT22;38455;52.710;6.502;2023-07-30T08:23:33;25.30;99.90
52555;DHT22;38455;52.710;6.502;2023-07-30T08:25:59;24.60;99.90
52555;DHT22;38455;52.710;6.502;2023-07-30T08:28:24;23.80;99.90
52555;DHT22;38455;52.710;6.502;2023-07-30T08:30:50;23.30;99.90
52555;DHT22;38455;52.710;6.502;2023-07-30T08:33:16;23.00;99.90
52555;DHT22;38455;52.710;6.502;2023-07-30T08:35:41;22.70;99.90
52555;DHT22;38455;52.710;6.502;2023-07-30T08:38:07;23.10;99.90
52555;DHT22;38455;52.710;6.502;2023-07-30T08:40:33;23.30;99.90
52555;DHT22;38455;52.710;6.502;2023-07-30T08:42:59;22.90;99.90
52555;DHT22;38455;52.710;6.502;2023-07-30T08:45:25;22.60;99.90
52555;DHT22;38455;52.710;6.502;2023-07-30T08:47:50;22.60;99.90
52555;DHT22;38455;52.710;6.502;2023-07-30T08:50:16;22.60;99.90
52555;DHT22;38455;52.710;6.502;2023-07-30T08:52:42;22.50;99.90
52555;DHT22;38455;52.710;6.502;2023-07-30T08:55:09;22.20;99.90
52555;DHT22;38455;52.710;6.502;2023-07-30T08:57:36;22.10;99.90
52555;DHT22;38455;52.710;6.502;2023-07-30T09:00:08;21.90;99.90
52555;DHT22;38455;52.710;6.502;2023-07-30T09:02:38;22.00;99.90
52555;DHT22;38455;52.710;6.502;2023-07-30T09:05:05;22.00;99.90
52555;DHT22;38455;52.710;6.502;2023-07-30T09:07:31;22.00;99.90
52555;DHT22;38455;52.710;6.502;2023-07-30T09:09:57;22.20;99.90
52555;DHT22;38455;52.710;6.502;2023-07-30T09:12:30;22.60;99.90
52555;DHT22;38455;52.710;6.502;2023-07-30T09:14:56;23.30;99.90
52555;DHT22;38455;52.710;6.502;2023-07-30T09:17:22;23.40;99.90
52555;DHT22;38455;52.710;6.502;2023-07-30T09:19:48;23.30;99.90
52555;DHT22;38455;52.710;6.502;2023-07-30T09:22:24;22.90;99.90
52555;DHT22;38455;52.710;6.502;2023-07-30T09:24:49;22.50;99.90
52555;DHT22;38455;52.710;6.502;2023-07-30T09:27:20;22.00;99.90
52555;DHT22;38455;52.710;6.502;2023-07-30T09:29:56;21.60;99.90
52555;DHT22;38455;52.710;6.502;2023-07-30T09:32:31;21.20;99.90
52555;DHT22;38455;52.710;6.502;2023-07-30T09:35:08;21.00;99.90
52555;DHT22;38455;52.710;6.502;2023-07-30T09:37:39;20.70;99.90
52555;DHT22;38455;52.710;6.502;2023-07-30T09:40:10;20.60;99.90
52555;DHT22;38455;52.710;6.502;2023-07-30T09:42:38;20.50;99.90
52555;DHT22;38455;52.710;6.502;2023-07-30T09:45:08;20.30;99.90
52555;DHT22;38455;52.710;6.502;2023-07-30T09:47:46;20.20;99.90
52555;DHT22;38455;52.710;6.502;2023-07-30T09:50:14;20.00;99.90
52555;DHT22;38455;52.710;6.502;2023-07-30T09:52:44;20.20;99.90
52555;DHT22;38455;52.710;6.502;2023-07-30T09:55:10;20.50;99.90
52555;DHT22;38455;52.710;6.502;2023-07-30T09:57:37;20.70;99.90
52555;DHT22;38455;52.710;6.502;2023-07-30T10:00:03;21.00;99.90
52555;DHT22;38455;52.710;6.502;2023-07-30T10:02:32;21.80;99.90
52555;DHT22;38455;52.710;6.502;2023-07-30T10:05:03;22.30;99.90
52555;DHT22;38455;52.710;6.502;2023-07-30T10:07:30;22.50;99.90
52555;DHT22;38455;52.710;6.502;2023-07-30T10:09:59;22.50;99.90
52555;DHT22;38455;52.710;6.502;2023-07-30T10:12:29;22.30;99.90
52555;DHT22;38455;52.710;6.502;2023-07-30T10:14:56;22.20;99.90
52555;DHT22;38455;52.710;6.502;2023-07-30T10:17:22;21.90;99.90
52555;DHT22;38455;52.710;6.502;2023-07-30T10:19:49;21.90;99.90
52555;DHT22;38455;52.710;6.502;2023-07-30T10:25:13;21.30;99.90
52555;DHT22;38455;52.710;6.502;2023-07-30T10:27:40;20.90;99.90
52555;DHT22;38455;52.710;6.502;2023-07-30T10:30:16;20.50;99.90
52555;DHT22;38455;52.710;6.502;2023-07-30T10:33:03;20.10;99.90
52555;DHT22;38455;52.710;6.502;2023-07-30T10:35:38;19.60;99.90
52555;DHT22;38455;52.710;6.502;2023-07-30T10:38:20;19.90;99.90
52555;DHT22;38455;52.710;6.502;2023-07-30T10:41:10;20.20;99.90
52555;DHT22;38455;52.710;6.502;2023-07-30T10:43:38;20.50;99.90
52555;DHT22;38455;52.710;6.502;2023-07-30T10:46:05;21.70;99.90
52555;DHT22;38455;52.710;6.502;2023-07-30T10:48:33;22.00;99.90
52555;DHT22;38455;52.710;6.502;2023-07-30T10:51:01;22.40;99.90
52555;DHT22;38455;52.710;6.502;2023-07-30T10:53:27;22.60;99.90
52555;DHT22;38455;52.710;6.502;2023-07-30T10:55:53;22.50;99.90
52555;DHT22;38455;52.710;6.502;2023-07-30T10:58:21;22.20;99.90
52555;DHT22;38455;52.710;6.502;2023-07-30T11:00:49;21.80;99.90
52555;DHT22;38455;52.710;6.502;2023-07-30T11:03:15;21.90;99.90
52555;DHT22;38455;52.710;6.502;2023-07-30T11:05:40;22.00;99.90
52555;DHT22;38455;52.710;6.502;2023-07-30T11:08:06;22.30;99.90
52555;DHT22;38455;52.710;6.502;2023-07-30T11:10:32;22.30;99.90
52555;DHT22;38455;52.710;6.502;2023-07-30T11:13:06;22.50;99.90
52555;DHT22;38455;52.710;6.502;2023-07-30T11:15:32;22.50;99.90
52555;DHT22;38455;52.710;6.502;2023-07-30T11:17:58;23.20;99.90
52555;DHT22;38455;52.710;6.502;2023-07-30T11:20:27;23.90;99.90
52555;DHT22;38455;52.710;6.502;2023-07-30T11:22:53;24.50;99.90
52555;DHT22;38455;52.710;6.502;2023-07-30T11:25:19;24.90;99.90
52555;DHT22;38455;52.710;6.502;2023-07-30T11:27:49;25.50;99.90
52555;DHT22;38455;52.710;6.502;2023-07-30T11:30:15;25.70;99.90
52555;DHT22;38455;52.710;6.502;2023-07-30T11:32:44;26.10;99.90
52555;DHT22;38455;52.710;6.502;2023-07-30T11:35:11;26.40;99.90
52555;DHT22;38455;52.710;6.502;2023-07-30T11:37:39;26.50;99.90
52555;DHT22;38455;52.710;6.502;2023-07-30T11:40:09;26.60;99.90
52555;DHT22;38455;52.710;6.502;2023-07-30T11:42:36;27.20;99.90
52555;DHT22;38455;52.710;6.502;2023-07-30T11:45:21;27.20;99.90
52555;DHT22;38455;52.710;6.502;2023-07-30T11:47:48;27.20;99.90
52555;DHT22;38455;52.710;6.502;2023-07-30T11:50:14;27.30;99.90
52555;DHT22;38455;52.710;6.502;2023-07-30T11:52:54;27.50;99.40
52555;DHT22;38455;52.710;6.502;2023-07-30T11:55:20;27.70;97.30
52555;DHT22;38455;52.710;6.502;2023-07-30T11:57:46;27.90;98.90
52555;DHT22;38455;52.710;6.502;2023-07-30T12:00:12;27.50;98.00
52555;DHT22;38455;52.710;6.502;2023-07-30T12:02:38;27.20;97.60
52555;DHT22;38455;52.710;6.502;2023-07-30T12:05:04;26.60;97.70
52555;DHT22;38455;52.710;6.502;2023-07-30T12:07:32;25.70;97.40
52555;DHT22;38455;52.710;6.502;2023-07-30T12:10:11;25.10;97.70
52555;DHT22;38455;52.710;6.502;2023-07-30T12:12:44;25.00;98.20
52555;DHT22;38455;52.710;6.502;2023-07-30T12:15:11;24.80;99.10
52555;DHT22;38455;52.710;6.502;2023-07-30T12:17:38;24.70;99.10
52555;DHT22;38455;52.710;6.502;2023-07-30T12:20:07;24.40;99.40
52555;DHT22;38455;52.710;6.502;2023-07-30T12:22:34;24.30;99.70
52555;DHT22;38455;52.710;6.502;2023-07-30T12:25:01;24.50;99.90
52555;DHT22;38455;52.710;6.502;2023-07-30T12:27:28;24.60;99.60
52555;DHT22;38455;52.710;6.502;2023-07-30T12:29:54;24.90;99.70
52555;DHT22;38455;52.710;6.502;2023-07-30T12:32:19;25.10;99.30
52555;DHT22;38455;52.710;6.502;2023-07-30T12:34:45;25.10;98.60
52555;DHT22;38455;52.710;6.502;2023-07-30T12:37:11;24.90;98.50
52555;DHT22;38455;52.710;6.502;2023-07-30T12:39:37;24.80;98.80
52555;DHT22;38455;52.710;6.502;2023-07-30T12:42:03;24.90;99.20
52555;DHT22;38455;52.710;6.502;2023-07-30T12:44:28;24.60;98.60
52555;DHT22;38455;52.710;6.502;2023-07-30T12:46:54;24.50;98.70
52555;DHT22;38455;52.710;6.502;2023-07-30T12:49:20;24.10;98.80
52555;DHT22;38455;52.710;6.502;2023-07-30T12:51:45;23.80;99.80
52555;DHT22;38455;52.710;6.502;2023-07-30T12:54:11;23.40;99.90
52555;DHT22;38455;52.710;6.502;2023-07-30T12:56:37;23.20;99.90
52555;DHT22;38455;52.710;6.502;2023-07-30T12:59:03;23.00;99.90
52555;DHT22;38455;52.710;6.502;2023-07-30T13:01:28;22.90;99.90
52555;DHT22;38455;52.710;6.502;2023-07-30T13:03:54;22.80;99.90
52555;DHT22;38455;52.710;6.502;2023-07-30T13:06:23;22.70;99.90
52555;DHT22;38455;52.710;6.502;2023-07-30T13:08:48;22.70;99.90
52555;DHT22;38455;52.710;6.502;2023-07-30T13:11:14;22.30;99.90
52555;DHT22;38455;52.710;6.502;2023-07-30T13:13:40;22.40;99.90
52555;DHT22;38455;52.710;6.502;2023-07-30T13:16:05;22.40;99.90
52555;DHT22;38455;52.710;6.502;2023-07-30T13:18:31;22.90;99.90
52555;DHT22;38455;52.710;6.502;2023-07-30T13:20:57;23.30;99.90
52555;DHT22;38455;52.710;6.502;2023-07-30T13:23:22;23.50;99.90
52555;DHT22;38455;52.710;6.502;2023-07-30T13:25:50;23.80;99.90
52555;DHT22;38455;52.710;6.502;2023-07-30T13:28:16;23.90;99.90
52555;DHT22;38455;52.710;6.502;2023-07-30T13:30:42;24.00;99.90
52555;DHT22;38455;52.710;6.502;2023-07-30T13:33:07;24.10;99.90
52555;DHT22;38455;52.710;6.502;2023-07-30T13:35:33;24.20;99.90
52555;DHT22;38455;52.710;6.502;2023-07-30T13:37:59;24.10;99.90
52555;DHT22;38455;52.710;6.502;2023-07-30T13:40:25;24.00;99.90
52555;DHT22;38455;52.710;6.502;2023-07-30T13:42:50;23.80;99.90
52555;DHT22;38455;52.710;6.502;2023-07-30T13:45:16;23.40;99.90
52555;DHT22;38455;52.710;6.502;2023-07-30T13:47:42;23.30;99.90
52555;DHT22;38455;52.710;6.502;2023-07-30T13:50:08;23.50;99.90
52555;DHT22;38455;52.710;6.502;2023-07-30T13:52:33;23.60;99.90
52555;DHT22;38455;52.710;6.502;2023-07-30T13:54:59;23.50;99.90
52555;DHT22;38455;52.710;6.502;2023-07-30T13:57:25;23.50;99.90
52555;DHT22;38455;52.710;6.502;2023-07-30T13:59:52;23.70;99.90
52555;DHT22;38455;52.710;6.502;2023-07-30T14:02:18;23.90;99.90
52555;DHT22;38455;52.710;6.502;2023-07-30T14:04:43;23.90;99.90
52555;DHT22;38455;52.710;6.502;2023-07-30T14:07:09;23.70;99.90
52555;DHT22;38455;52.710;6.502;2023-07-30T14:09:35;23.40;99.90
52555;DHT22;38455;52.710;6.502;2023-07-30T14:12:06;23.50;99.90
52555;DHT22;38455;52.710;6.502;2023-07-30T14:14:31;23.50;99.90
52555;DHT22;38455;52.710;6.502;2023-07-30T14:16:57;23.30;99.90
52555;DHT22;38455;52.710;6.502;2023-07-30T14:19:23;23.10;99.90
52555;DHT22;38455;52.710;6.502;2023-07-30T14:21:49;22.80;99.90
52555;DHT22;38455;52.710;6.502;2023-07-30T14:24:15;22.60;99.90
52555;DHT22;38455;52.710;6.502;2023-07-30T14:26:40;22.60;99.90
52555;DHT22;38455;52.710;6.502;2023-07-30T14:29:06;22.70;99.90
52555;DHT22;38455;52.710;6.502;2023-07-30T14:31:32;22.90;99.90
52555;DHT22;38455;52.710;6.502;2023-07-30T14:33:58;22.90;99.90
52555;DHT22;38455;52.710;6.502;2023-07-30T14:36:23;23.10;99.90
52555;DHT22;38455;52.710;6.502;2023-07-30T14:38:49;23.10;99.90
52555;DHT22;38455;52.710;6.502;2023-07-30T14:41:15;23.10;99.90
52555;DHT22;38455;52.710;6.502;2023-07-30T14:43:41;23.10;99.90
52555;DHT22;38455;52.710;6.502;2023-07-30T14:46:06;23.10;99.90
52555;DHT22;38455;52.710;6.502;2023-07-30T14:48:39;22.80;99.90
52555;DHT22;38455;52.710;6.502;2023-07-30T14:51:05;22.80;99.90
52555;DHT22;38455;52.710;6.502;2023-07-30T14:53:31;22.90;99.90
52555;DHT22;38455;52.710;6.502;2023-07-30T14:55:56;23.00;99.90
52555;DHT22;38455;52.710;6.502;2023-07-30T14:58:22;23.00;99.90
52555;DHT22;38455;52.710;6.502;2023-07-30T15:00:47;23.00;99.90
52555;DHT22;38455;52.710;6.502;2023-07-30T15:03:13;22.70;99.90
52555;DHT22;38455;52.710;6.502;2023-07-30T15:05:39;22.60;99.90
52555;DHT22;38455;52.710;6.502;2023-07-30T15:08:04;22.50;99.90
52555;DHT22;38455;52.710;6.502;2023-07-30T15:10:30;22.30;99.90
52555;DHT22;38455;52.710;6.502;2023-07-30T15:12:56;22.20;99.90
52555;DHT22;38455;52.710;6.502;2023-07-30T15:15:21;22.10;99.90
52555;DHT22;38455;52.710;6.502;2023-07-30T15:17:47;21.90;99.90
52555;DHT22;38455;52.710;6.502;2023-07-30T15:20:13;21.90;99.90
52555;DHT22;38455;52.710;6.502;2023-07-30T15:22:39;21.90;99.90
52555;DHT22;38455;52.710;6.502;2023-07-30T15:25:05;22.00;99.90
52555;DHT22;38455;52.710;6.502;2023-07-30T15:27:31;22.10;99.90
52555;DHT22;38455;52.710;6.502;2023-07-30T15:29:56;22.20;99.90